sensor_id;sensor_type;location;lat;lon;timestamp;P1;durP1;ratioP1;P2;durP2;ratioP2
64242;SDS011;50573;51.512;5.386;2022-09-02T00:08:57;5.95;;;2.15;;
64242;SDS011;50573;51.512;5.386;2022-09-02T00:19:02;7.72;;;2.00;;
64242;SDS011;50573;51.512;5.386;2022-09-02T00:29:07;5.63;;;2.20;;
64242;SDS011;50573;51.512;5.386;2022-09-02T00:39:10;5.57;;;1.90;;
64242;SDS011;50573;51.512;5.386;2022-09-02T00:49:17;5.78;;;2.30;;
64242;SDS011;50573;51.512;5.386;2022-09-02T00:59:25;3.83;;;2.08;;
64242;SDS011;50573;51.512;5.386;2022-09-02T01:09:33;4.60;;;2.30;;
64242;SDS011;50573;51.512;5.386;2022-09-02T01:19:37;6.13;;;1.95;;
64242;SDS011;50573;51.512;5.386;2022-09-02T01:29:51;5.90;;;2.15;;
64242;SDS011;50573;51.512;5.386;2022-09-02T01:39:55;9.20;;;2.75;;
64242;SDS011;50573;51.512;5.386;2022-09-02T01:50:00;5.20;;;2.20;;
64242;SDS011;50573;51.512;5.386;2022-09-02T02:00:06;7.85;;;2.42;;
64242;SDS011;50573;51.512;5.386;2022-09-02T02:10:16;3.10;;;2.22;;
64242;SDS011;50573;51.512;5.386;2022-09-02T02:20:22;6.35;;;2.38;;
64242;SDS011;50573;51.512;5.386;2022-09-02T02:30:28;7.90;;;2.55;;
64242;SDS011;50573;51.512;5.386;2022-09-02T02:40:34;7.63;;;3.00;;
64242;SDS011;50573;51.512;5.386;2022-09-02T02:50:39;9.13;;;3.20;;
64242;SDS011;50573;51.512;5.386;2022-09-02T03:00:42;7.32;;;2.50;;
64242;SDS011;50573;51.512;5.386;2022-09-02T03:20:57;6.47;;;2.80;;
64242;SDS011;50573;51.512;5.386;2022-09-02T03:31:01;6.07;;;3.30;;
64242;SDS011;50573;51.512;5.386;2022-09-02T03:41:04;9.73;;;3.47;;
64242;SDS011;50573;51.512;5.386;2022-09-02T03:51:09;9.38;;;3.47;;
64242;SDS011;50573;51.512;5.386;2022-09-02T04:01:13;8.23;;;3.83;;
64242;SDS011;50573;51.512;5.386;2022-09-02T04:11:19;14.33;;;4.73;;
64242;SDS011;50573;51.512;5.386;2022-09-02T04:21:26;13.10;;;3.88;;
64242;SDS011;50573;51.512;5.386;2022-09-02T04:31:31;19.23;;;4.43;;
64242;SDS011;50573;51.512;5.386;2022-09-02T04:41:36;15.10;;;4.55;;
64242;SDS011;50573;51.512;5.386;2022-09-02T04:51:44;18.92;;;5.35;;
64242;SDS011;50573;51.512;5.386;2022-09-02T05:11:57;19.00;;;5.75;;
64242;SDS011;50573;51.512;5.386;2022-09-02T05:22:12;16.88;;;6.65;;
64242;SDS011;50573;51.512;5.386;2022-09-02T05:32:18;19.50;;;7.03;;
64242;SDS011;50573;51.512;5.386;2022-09-02T05:42:23;21.45;;;6.55;;
64242;SDS011;50573;51.512;5.386;2022-09-02T05:52:27;20.00;;;7.57;;
64242;SDS011;50573;51.512;5.386;2022-09-02T06:02:31;21.27;;;7.22;;
64242;SDS011;50573;51.512;5.386;2022-09-02T06:12:37;21.77;;;7.93;;
64242;SDS011;50573;51.512;5.386;2022-09-02T06:22:43;30.75;;;11.27;;
64242;SDS011;50573;51.512;5.386;2022-09-02T06:32:49;30.77;;;11.07;;
64242;SDS011;50573;51.512;5.386;2022-09-02T06:42:53;34.45;;;13.90;;
64242;SDS011;50573;51.512;5.386;2022-09-02T06:53:13;36.83;;;15.23;;
64242;SDS011;50573;51.512;5.386;2022-09-02T07:03:18;49.35;;;18.52;;
64242;SDS011;50573;51.512;5.386;2022-09-02T07:13:44;53.97;;;22.77;;
64242;SDS011;50573;51.512;5.386;2022-09-02T07:23:50;47.40;;;20.30;;
64242;SDS011;50573;51.512;5.386;2022-09-02T07:33:56;48.17;;;20.37;;
64242;SDS011;50573;51.512;5.386;2022-09-02T07:44:01;47.83;;;21.60;;
64242;SDS011;50573;51.512;5.386;2022-09-02T07:54:06;50.23;;;19.13;;
64242;SDS011;50573;51.512;5.386;2022-09-02T08:04:10;44.72;;;19.80;;
64242;SDS011;50573;51.512;5.386;2022-09-02T08:14:17;47.40;;;20.00;;
64242;SDS011;50573;51.512;5.386;2022-09-02T08:24:22;44.35;;;20.00;;
64242;SDS011;50573;51.512;5.386;2022-09-02T08:34:26;41.95;;;18.67;;
64242;SDS011;50573;51.512;5.386;2022-09-02T08:44:29;40.20;;;18.20;;
64242;SDS011;50573;51.512;5.386;2022-09-02T08:54:40;45.80;;;17.95;;
64242;SDS011;50573;51.512;5.386;2022-09-02T09:04:53;39.55;;;16.38;;
64242;SDS011;50573;51.512;5.386;2022-09-02T09:15:09;31.42;;;13.85;;
64242;SDS011;50573;51.512;5.386;2022-09-02T09:25:18;24.42;;;11.65;;
64242;SDS011;50573;51.512;5.386;2022-09-02T09:35:22;22.80;;;9.77;;
64242;SDS011;50573;51.512;5.386;2022-09-02T09:45:28;21.23;;;7.47;;
64242;SDS011;50573;51.512;5.386;2022-09-02T09:55:35;13.50;;;4.30;;
64242;SDS011;50573;51.512;5.386;2022-09-02T10:05:53;11.38;;;3.47;;
64242;SDS011;50573;51.512;5.386;2022-09-02T10:16:11;7.95;;;2.30;;
64242;SDS011;50573;51.512;5.386;2022-09-02T10:26:34;6.68;;;2.25;;
64242;SDS011;50573;51.512;5.386;2022-09-02T10:36:52;10.35;;;2.47;;
64242;SDS011;50573;51.512;5.386;2022-09-02T10:47:14;5.85;;;2.40;;
64242;SDS011;50573;51.512;5.386;2022-09-02T10:57:34;9.52;;;2.30;;
64242;SDS011;50573;51.512;5.386;2022-09-02T11:07:48;7.53;;;2.28;;
64242;SDS011;50573;51.512;5.386;2022-09-02T11:17:59;6.85;;;2.20;;
64242;SDS011;50573;51.512;5.386;2022-09-02T11:28:10;11.73;;;2.08;;
64242;SDS011;50573;51.512;5.386;2022-09-02T11:38:31;8.82;;;1.95;;
64242;SDS011;50573;51.512;5.386;2022-09-02T11:59:05;3.35;;;1.48;;
64242;SDS011;50573;51.512;5.386;2022-09-02T12:09:09;7.80;;;2.20;;
64242;SDS011;50573;51.512;5.386;2022-09-02T12:19:23;8.55;;;2.10;;
64242;SDS011;50573;51.512;5.386;2022-09-02T12:29:31;5.03;;;1.73;;
64242;SDS011;50573;51.512;5.386;2022-09-02T12:39:49;6.00;;;1.85;;
64242;SDS011;50573;51.512;5.386;2022-09-02T12:49:59;8.13;;;1.60;;
64242;SDS011;50573;51.512;5.386;2022-09-02T13:00:09;9.88;;;2.33;;
64242;SDS011;50573;51.512;5.386;2022-09-02T13:10:21;6.03;;;1.92;;
64242;SDS011;50573;51.512;5.386;2022-09-02T13:20:44;5.25;;;1.73;;
64242;SDS011;50573;51.512;5.386;2022-09-02T13:31:12;5.30;;;1.73;;
64242;SDS011;50573;51.512;5.386;2022-09-02T13:41:29;3.87;;;1.80;;
64242;SDS011;50573;51.512;5.386;2022-09-02T13:51:41;7.28;;;2.13;;
64242;SDS011;50573;51.512;5.386;2022-09-02T14:01:46;4.75;;;1.80;;
64242;SDS011;50573;51.512;5.386;2022-09-02T14:11:51;4.40;;;1.77;;
64242;SDS011;50573;51.512;5.386;2022-09-02T14:21:57;4.40;;;1.70;;
64242;SDS011;50573;51.512;5.386;2022-09-02T14:32:08;8.68;;;2.38;;
64242;SDS011;50573;51.512;5.386;2022-09-02T14:42:14;4.82;;;1.60;;
64242;SDS011;50573;51.512;5.386;2022-09-02T14:52:19;11.52;;;1.63;;
64242;SDS011;50573;51.512;5.386;2022-09-02T15:02:30;8.73;;;2.00;;
64242;SDS011;50573;51.512;5.386;2022-09-02T15:12:42;5.97;;;2.50;;
64242;SDS011;50573;51.512;5.386;2022-09-02T15:22:49;7.03;;;2.30;;
64242;SDS011;50573;51.512;5.386;2022-09-02T15:32:55;5.97;;;2.13;;
64242;SDS011;50573;51.512;5.386;2022-09-02T15:42:58;7.35;;;2.30;;
64242;SDS011;50573;51.512;5.386;2022-09-02T15:53:03;8.18;;;2.92;;
64242;SDS011;50573;51.512;5.386;2022-09-02T16:03:06;6.80;;;3.05;;
64242;SDS011;50573;51.512;5.386;2022-09-02T16:13:12;5.25;;;2.42;;
64242;SDS011;50573;51.512;5.386;2022-09-02T16:23:16;7.60;;;3.13;;
64242;SDS011;50573;51.512;5.386;2022-09-02T16:33:21;5.47;;;2.00;;
64242;SDS011;50573;51.512;5.386;2022-09-02T16:43:24;7.93;;;3.03;;
64242;SDS011;50573;51.512;5.386;2022-09-02T16:53:29;5.68;;;2.45;;
64242;SDS011;50573;51.512;5.386;2022-09-02T17:03:33;7.03;;;2.53;;
64242;SDS011;50573;51.512;5.386;2022-09-02T17:13:39;9.57;;;2.78;;
64242;SDS011;50573;51.512;5.386;2022-09-02T17:23:42;10.05;;;3.70;;
64242;SDS011;50573;51.512;5.386;2022-09-02T17:43:51;6.00;;;2.75;;
64242;SDS011;50573;51.512;5.386;2022-09-02T18:14:15;6.72;;;1.90;;
64242;SDS011;50573;51.512;5.386;2022-09-02T18:24:26;9.27;;;2.38;;
64242;SDS011;50573;51.512;5.386;2022-09-02T18:34:54;4.32;;;1.63;;
64242;SDS011;50573;51.512;5.386;2022-09-02T18:45:07;6.60;;;2.45;;
64242;SDS011;50573;51.512;5.386;2022-09-02T18:55:23;14.15;;;3.90;;
64242;SDS011;50573;51.512;5.386;2022-09-02T19:05:35;7.22;;;2.38;;
64242;SDS011;50573;51.512;5.386;2022-09-02T19:15:40;7.43;;;2.05;;
64242;SDS011;50573;51.512;5.386;2022-09-02T19:25:44;6.65;;;2.00;;
64242;SDS011;50573;51.512;5.386;2022-09-02T19:35:48;10.97;;;2.90;;
64242;SDS011;50573;51.512;5.386;2022-09-02T19:45:52;15.85;;;3.10;;
64242;SDS011;50573;51.512;5.386;2022-09-02T19:55:57;4.00;;;1.98;;
64242;SDS011;50573;51.512;5.386;2022-09-02T20:06:02;8.68;;;2.47;;
64242;SDS011;50573;51.512;5.386;2022-09-02T20:16:14;9.98;;;3.10;;
64242;SDS011;50573;51.512;5.386;2022-09-02T20:26:22;5.10;;;2.47;;
64242;SDS011;50573;51.512;5.386;2022-09-02T20:36:39;4.78;;;2.10;;
64242;SDS011;50573;51.512;5.386;2022-09-02T20:46:54;8.27;;;2.50;;
64242;SDS011;50573;51.512;5.386;2022-09-02T20:57:14;6.57;;;2.50;;
64242;SDS011;50573;51.512;5.386;2022-09-02T21:07:30;9.23;;;2.53;;
64242;SDS011;50573;51.512;5.386;2022-09-02T21:17:40;6.82;;;2.42;;
64242;SDS011;50573;51.512;5.386;2022-09-02T21:27:49;11.55;;;2.08;;
64242;SDS011;50573;51.512;5.386;2022-09-02T21:38:03;8.35;;;2.33;;
64242;SDS011;50573;51.512;5.386;2022-09-02T21:48:15;14.38;;;2.17;;
64242;SDS011;50573;51.512;5.386;2022-09-02T21:58:41;5.22;;;2.55;;
64242;SDS011;50573;51.512;5.386;2022-09-02T22:08:54;6.30;;;2.30;;
64242;SDS011;50573;51.512;5.386;2022-09-02T22:19:08;10.03;;;2.87;;
64242;SDS011;50573;51.512;5.386;2022-09-02T22:39:24;6.90;;;2.30;;
64242;SDS011;50573;51.512;5.386;2022-09-02T22:49:35;9.57;;;3.47;;
64242;SDS011;50573;51.512;5.386;2022-09-02T23:00:03;7.82;;;2.72;;
64242;SDS011;50573;51.512;5.386;2022-09-02T23:10:12;7.25;;;3.63;;
64242;SDS011;50573;51.512;5.386;2022-09-02T23:20:28;31.85;;;14.23;;
64242;SDS011;50573;51.512;5.386;2022-09-02T23:30:48;58.22;;;30.35;;
64242;SDS011;50573;51.512;5.386;2022-09-02T23:41:05;43.10;;;21.85;;
64242;SDS011;50573;51.512;5.386;2022-09-02T23:51:12;44.45;;;21.42;;
